createdAt,value
2023-01-21T00:01:10.137Z,4.47
2023-01-21T00:03:40.526Z,3.55
2023-01-21T00:06:10.197Z,4.47
2023-01-21T00:08:37.702Z,3.50
2023-01-21T00:11:10.205Z,4.47
2023-01-21T00:13:37.960Z,4.47
2023-01-21T00:16:05.631Z,3.63
2023-01-21T00:18:34.131Z,3.50
2023-01-21T00:21:01.694Z,4.82
2023-01-21T00:23:29.401Z,4.13
2023-01-21T00:26:00.601Z,3.55
2023-01-21T00:31:00.460Z,3.10
2023-01-21T00:33:29.315Z,4.00
2023-01-21T00:36:01.091Z,3.92
2023-01-21T00:38:28.971Z,4.35
2023-01-21T00:41:03.661Z,3.78
2023-01-21T00:43:31.353Z,3.80
2023-01-21T00:46:00.664Z,4.00
2023-01-21T00:48:28.752Z,3.33
2023-01-21T00:50:56.283Z,3.20
2023-01-21T00:53:24.023Z,3.45
2023-01-21T00:55:52.696Z,4.65
2023-01-21T00:58:20.324Z,3.30
2023-01-21T01:00:50.337Z,3.42
2023-01-21T01:03:17.744Z,3.50
2023-01-21T01:05:45.521Z,3.75
2023-01-21T01:08:13.346Z,3.13
2023-01-21T01:10:40.827Z,3.08
2023-01-21T01:13:08.508Z,3.53
2023-01-21T01:15:36.351Z,3.63
2023-01-21T01:18:04.245Z,3.40
2023-01-21T01:20:32.108Z,3.78
2023-01-21T01:22:59.504Z,3.30
2023-01-21T01:25:30.144Z,4.60
2023-01-21T01:27:57.488Z,3.88
2023-01-21T01:30:25.421Z,3.50
2023-01-21T01:32:52.897Z,3.72
2023-01-21T01:35:20.519Z,3.35
2023-01-21T01:37:47.964Z,3.35
2023-01-21T01:40:15.725Z,3.53
2023-01-21T01:42:43.331Z,3.78
2023-01-21T01:45:21.000Z,3.65
2023-01-21T01:48:00.016Z,3.67
2023-01-21T01:50:31.481Z,3.65
2023-01-21T01:53:00.302Z,4.10
2023-01-21T01:55:32.332Z,2.90
2023-01-21T01:57:59.929Z,3.47
2023-01-21T02:00:27.368Z,3.78
2023-01-21T02:03:13.437Z,3.97
2023-01-21T02:05:41.326Z,3.72
2023-01-21T02:08:08.789Z,3.17
2023-01-21T02:10:38.218Z,4.07
2023-01-21T02:13:05.674Z,3.75
2023-01-21T02:15:46.091Z,3.20
2023-01-21T02:18:25.681Z,3.10
2023-01-21T02:21:13.341Z,3.08
2023-01-21T02:24:11.411Z,3.38
2023-01-21T02:27:01.249Z,2.78
2023-01-21T02:29:53.406Z,2.78
2023-01-21T02:32:41.088Z,2.72
2023-01-21T02:35:16.746Z,3.25
2023-01-21T02:38:22.186Z,3.53
2023-01-21T02:41:22.214Z,3.30
2023-01-21T02:43:54.426Z,4.15
2023-01-21T02:46:26.457Z,4.32
2023-01-21T02:48:57.756Z,4.47
2023-01-21T02:51:25.301Z,5.50
2023-01-21T02:53:52.800Z,4.63
2023-01-21T02:56:23.388Z,3.78
2023-01-21T02:58:56.593Z,4.15
2023-01-21T03:01:55.529Z,3.28
2023-01-21T03:04:37.872Z,3.58
2023-01-21T03:07:28.082Z,4.57
2023-01-21T03:10:07.027Z,3.90
2023-01-21T03:12:52.472Z,3.45
2023-01-21T03:15:42.484Z,4.18
2023-01-21T03:18:18.994Z,4.20
2023-01-21T03:20:52.121Z,4.05
2023-01-21T03:23:27.166Z,3.55
2023-01-21T03:25:55.020Z,3.15
2023-01-21T03:28:25.195Z,3.88
2023-01-21T03:30:56.063Z,3.20
2023-01-21T03:33:23.423Z,3.20
2023-01-21T03:35:51.396Z,2.78
2023-01-21T03:38:23.239Z,2.85
2023-01-21T03:40:54.660Z,3.80
2023-01-21T03:43:22.292Z,3.80
2023-01-21T03:46:11.372Z,3.83
2023-01-21T03:48:38.696Z,3.13
2023-01-21T03:51:09.459Z,3.03
2023-01-21T03:53:36.821Z,4.30
2023-01-21T03:56:04.472Z,3.38
2023-01-21T03:58:32.378Z,3.55
2023-01-21T04:01:00.017Z,3.05
2023-01-21T04:03:27.690Z,3.40
2023-01-21T04:05:55.058Z,3.88
2023-01-21T04:08:22.630Z,4.45
2023-01-21T04:10:50.158Z,3.55
2023-01-21T04:13:17.605Z,3.97
2023-01-21T04:15:44.954Z,2.75
2023-01-21T04:18:12.869Z,2.88
2023-01-21T04:20:40.336Z,2.53
2023-01-21T04:23:07.885Z,2.78
2023-01-21T04:25:35.557Z,4.72
2023-01-21T04:28:04.800Z,3.88
2023-01-21T04:30:33.211Z,3.80
2023-01-21T04:33:00.624Z,3.63
2023-01-21T04:35:28.098Z,4.22
2023-01-21T04:37:56.157Z,3.38
2023-01-21T04:40:23.674Z,3.97
2023-01-21T04:42:51.419Z,4.65
2023-01-21T04:45:18.853Z,3.97
2023-01-21T04:47:47.004Z,3.67
2023-01-21T04:50:14.837Z,3.33
2023-01-21T04:52:42.777Z,3.83
2023-01-21T04:55:10.847Z,4.60
2023-01-21T04:57:38.323Z,4.22
2023-01-21T05:00:06.210Z,4.28
2023-01-21T05:02:33.882Z,4.75
2023-01-21T05:05:01.297Z,3.75
2023-01-21T05:07:28.741Z,4.75
2023-01-21T05:09:56.337Z,4.68
2023-01-21T05:12:23.785Z,4.47
2023-01-21T05:14:55.033Z,4.55
2023-01-21T05:19:53.074Z,4.40
2023-01-21T05:22:20.491Z,4.07
2023-01-21T05:24:48.095Z,4.15
2023-01-21T05:27:16.089Z,4.60
2023-01-21T05:29:43.486Z,5.50
2023-01-21T05:32:10.854Z,3.80
2023-01-21T05:34:38.431Z,4.60
2023-01-21T05:37:06.317Z,4.03
2023-01-21T05:39:33.913Z,4.45
2023-01-21T05:42:02.652Z,4.43
2023-01-21T05:44:30.229Z,3.38
2023-01-21T05:46:57.685Z,3.90
2023-01-21T05:49:27.380Z,3.40
2023-01-21T05:51:54.881Z,3.47
2023-01-21T05:54:22.364Z,3.80
2023-01-21T05:56:49.813Z,4.07
2023-01-21T05:59:17.422Z,3.35
2023-01-21T06:01:44.781Z,4.57
2023-01-21T06:04:12.231Z,4.30
2023-01-21T06:06:40.820Z,3.63
2023-01-21T06:09:08.199Z,4.13
2023-01-21T06:11:35.641Z,4.30
2023-01-21T06:14:04.203Z,3.42
2023-01-21T06:16:32.782Z,4.07
2023-01-21T06:19:00.311Z,4.55
2023-01-21T06:21:27.864Z,3.70
2023-01-21T06:23:55.436Z,4.78
2023-01-21T06:26:22.997Z,5.00
2023-01-21T06:28:50.429Z,6.22
2023-01-21T06:31:18.000Z,6.60
2023-01-21T06:33:45.452Z,6.60
2023-01-21T06:36:12.923Z,5.82
2023-01-21T06:38:40.332Z,6.38
2023-01-21T06:41:08.007Z,5.85
2023-01-21T06:43:35.455Z,6.80
2023-01-21T06:46:03.597Z,5.40
2023-01-21T06:48:31.649Z,6.95
2023-01-21T06:51:01.010Z,6.07
2023-01-21T06:53:28.587Z,6.38
2023-01-21T06:55:55.998Z,6.05
2023-01-21T06:58:24.359Z,6.07
2023-01-21T07:00:51.715Z,5.78
2023-01-21T07:03:19.118Z,5.78
2023-01-21T07:05:46.788Z,5.95
2023-01-21T07:08:14.190Z,6.03
2023-01-21T07:10:42.358Z,5.68
2023-01-21T07:13:10.033Z,5.70
2023-01-21T07:15:37.470Z,4.15
2023-01-21T07:18:05.659Z,5.18
2023-01-21T07:20:33.271Z,5.55
2023-01-21T07:23:02.293Z,5.18
2023-01-21T07:25:30.496Z,5.15
2023-01-21T07:27:58.468Z,6.38
2023-01-21T07:30:28.002Z,6.05
2023-01-21T07:32:55.794Z,5.80
2023-01-21T07:35:23.291Z,5.18
2023-01-21T07:37:51.300Z,6.40
2023-01-21T07:40:18.812Z,5.80
2023-01-21T07:42:51.851Z,5.13
2023-01-21T07:45:20.213Z,5.55
2023-01-21T07:47:47.670Z,6.25
2023-01-21T07:50:15.377Z,5.82
2023-01-21T07:52:43.875Z,5.60
2023-01-21T07:55:12.679Z,4.95
2023-01-21T07:57:40.195Z,7.63
2023-01-21T08:00:09.250Z,6.70
2023-01-21T08:02:37.677Z,6.00
2023-01-21T08:05:06.259Z,6.55
2023-01-21T08:07:33.733Z,7.20
2023-01-21T08:10:01.221Z,5.80
2023-01-21T08:12:28.888Z,7.18
2023-01-21T08:14:56.327Z,6.13
2023-01-21T08:17:23.773Z,6.00
2023-01-21T08:19:51.222Z,7.47
2023-01-21T08:22:18.969Z,5.13
2023-01-21T08:24:47.811Z,6.18
2023-01-21T08:27:19.283Z,5.28
2023-01-21T08:29:48.587Z,5.03
2023-01-21T08:32:16.185Z,5.43
2023-01-21T08:34:46.788Z,4.78
2023-01-21T08:37:14.278Z,5.05
2023-01-21T08:39:42.058Z,5.80
2023-01-21T08:42:11.935Z,5.55
2023-01-21T08:44:39.407Z,5.28
2023-01-21T08:47:06.903Z,4.78
2023-01-21T08:49:34.303Z,6.63
2023-01-21T08:52:01.786Z,5.35
2023-01-21T08:54:29.800Z,5.60
2023-01-21T08:56:57.337Z,6.53
2023-01-21T08:59:28.881Z,4.97
2023-01-21T09:01:56.753Z,11.23
2023-01-21T09:04:24.316Z,16.33
2023-01-21T09:06:53.149Z,14.65
2023-01-21T09:09:20.605Z,8.90
2023-01-21T09:11:48.452Z,5.85
2023-01-21T09:14:15.941Z,6.28
2023-01-21T09:16:43.560Z,6.28
2023-01-21T09:19:11.105Z,6.53
2023-01-21T09:21:38.697Z,4.97
2023-01-21T09:24:06.478Z,5.10
2023-01-21T09:26:34.628Z,5.13
2023-01-21T09:29:02.101Z,6.07
2023-01-21T09:31:30.199Z,5.07
2023-01-21T09:34:02.561Z,5.25
2023-01-21T09:36:31.995Z,5.35
2023-01-21T09:38:59.659Z,4.93
2023-01-21T09:41:30.422Z,4.45
2023-01-21T09:44:02.536Z,5.43
2023-01-21T09:46:38.672Z,4.70
2023-01-21T09:49:07.129Z,4.47
2023-01-21T09:51:41.214Z,4.78
2023-01-21T09:54:26.704Z,5.32
2023-01-21T09:57:39.062Z,4.63
2023-01-21T10:00:34.100Z,4.90
2023-01-21T10:03:16.555Z,5.00
2023-01-21T10:05:56.304Z,5.05
2023-01-21T10:08:36.005Z,4.68
2023-01-21T10:11:27.048Z,5.15
2023-01-21T10:14:24.987Z,5.78
2023-01-21T10:17:15.001Z,4.78
2023-01-21T10:19:46.543Z,4.90
2023-01-21T10:27:16.729Z,3.78
2023-01-21T10:29:44.748Z,4.40
2023-01-21T10:32:21.380Z,5.15
2023-01-21T10:34:53.235Z,5.15
2023-01-21T10:37:26.131Z,4.85
2023-01-21T10:40:45.426Z,5.72
2023-01-21T10:44:00.812Z,4.30
2023-01-21T10:46:38.339Z,5.18
2023-01-21T10:49:34.396Z,4.22
2023-01-21T10:52:29.848Z,5.00
2023-01-21T10:55:17.709Z,4.95
2023-01-21T10:57:55.686Z,5.15
2023-01-21T11:00:26.094Z,4.57
2023-01-21T11:02:59.047Z,5.03
2023-01-21T11:05:26.548Z,4.82
2023-01-21T11:07:55.152Z,4.03
2023-01-21T11:10:26.179Z,4.97
2023-01-21T11:12:54.560Z,4.55
2023-01-21T11:15:22.118Z,5.03
2023-01-21T11:17:53.700Z,5.07
2023-01-21T11:23:07.053Z,5.55
2023-01-21T11:25:41.103Z,4.32
2023-01-21T11:28:32.414Z,4.90
2023-01-21T11:31:20.447Z,4.38
2023-01-21T11:33:48.092Z,5.22
2023-01-21T11:36:17.645Z,4.63
2023-01-21T11:38:47.461Z,4.85
2023-01-21T11:41:16.683Z,5.15
2023-01-21T11:43:51.273Z,5.22
2023-01-21T11:46:49.228Z,7.07
2023-01-21T11:49:28.012Z,7.15
2023-01-21T11:52:22.941Z,6.00
2023-01-21T11:54:50.724Z,4.38
2023-01-21T11:57:24.764Z,4.93
2023-01-21T11:59:53.387Z,5.05
2023-01-21T12:02:25.654Z,4.65
2023-01-21T12:04:55.740Z,5.18
2023-01-21T12:07:26.799Z,4.53
2023-01-21T12:10:29.852Z,4.68
2023-01-21T12:13:00.153Z,4.35
2023-01-21T12:15:50.773Z,4.60
2023-01-21T12:18:36.743Z,5.73
2023-01-21T12:21:32.031Z,4.78
2023-01-21T12:24:36.939Z,4.95
2023-01-21T12:27:11.581Z,4.88
2023-01-21T12:30:01.383Z,5.22
2023-01-21T12:32:33.716Z,5.18
2023-01-21T12:35:08.919Z,5.47
2023-01-21T12:37:47.037Z,5.45
2023-01-21T12:40:30.197Z,5.15
2023-01-21T12:43:00.627Z,6.18
2023-01-21T12:45:31.274Z,5.50
2023-01-21T12:48:26.861Z,5.57
2023-01-21T12:51:19.313Z,5.20
2023-01-21T12:54:12.913Z,6.05
2023-01-21T12:56:59.097Z,5.25
2023-01-21T12:59:47.728Z,4.78
2023-01-21T13:02:20.968Z,5.63
2023-01-21T13:04:56.264Z,4.95
2023-01-21T13:07:44.892Z,5.22
2023-01-21T13:10:32.078Z,5.60
2023-01-21T13:13:11.151Z,5.70
2023-01-21T13:15:39.492Z,6.57
2023-01-21T13:18:15.398Z,6.57
2023-01-21T13:20:53.045Z,6.00
2023-01-21T13:23:31.911Z,5.70
2023-01-21T13:26:19.718Z,6.70
2023-01-21T13:28:49.510Z,5.88
2023-01-21T13:31:25.556Z,6.87
2023-01-21T13:34:01.446Z,7.93
2023-01-21T13:36:28.701Z,6.20
2023-01-21T13:38:59.350Z,5.50
2023-01-21T13:41:44.020Z,6.17
2023-01-21T13:44:39.123Z,4.85
2023-01-21T13:47:27.008Z,4.90
2023-01-21T13:49:58.053Z,6.55
2023-01-21T13:52:53.277Z,4.68
2023-01-21T13:55:29.863Z,5.53
2023-01-21T13:58:42.155Z,4.75
2023-01-21T14:01:13.557Z,5.00
2023-01-21T14:03:42.234Z,6.70
2023-01-21T14:06:09.605Z,5.53
2023-01-21T14:08:45.530Z,6.38
2023-01-21T14:11:19.370Z,6.45
2023-01-21T14:14:13.131Z,6.25
2023-01-21T14:17:00.672Z,6.28
2023-01-21T14:19:40.116Z,5.68
2023-01-21T14:22:13.688Z,6.60
2023-01-21T14:24:51.332Z,5.88
2023-01-21T14:27:27.420Z,7.85
2023-01-21T14:29:59.321Z,7.53
2023-01-21T14:32:39.397Z,8.20
2023-01-21T14:35:15.762Z,9.48
2023-01-21T14:38:03.531Z,9.80
2023-01-21T14:40:33.251Z,9.20
2023-01-21T14:43:01.252Z,8.80
2023-01-21T14:45:51.667Z,8.15
2023-01-21T14:48:29.031Z,8.90
2023-01-21T14:51:10.329Z,7.20
2023-01-21T14:56:27.194Z,8.13
2023-01-21T15:01:41.826Z,6.20
2023-01-21T15:04:26.543Z,6.30
2023-01-21T15:07:09.573Z,6.45
2023-01-21T15:09:38.346Z,6.32
2023-01-21T15:12:07.855Z,5.65
2023-01-21T15:14:36.780Z,5.68
2023-01-21T15:17:04.882Z,5.38
2023-01-21T15:19:35.976Z,5.13
2023-01-21T15:22:08.266Z,6.18
2023-01-21T15:24:35.841Z,7.75
2023-01-21T15:27:03.187Z,7.60
2023-01-21T15:29:37.830Z,7.10
2023-01-21T15:32:20.448Z,8.02
2023-01-21T15:34:54.282Z,6.40
2023-01-21T15:37:23.534Z,6.63
2023-01-21T15:39:52.460Z,6.25
2023-01-21T15:42:39.856Z,5.65
2023-01-21T15:45:26.841Z,5.80
2023-01-21T15:47:57.905Z,5.93
2023-01-21T15:50:48.145Z,7.68
2023-01-21T15:53:39.503Z,6.97
2023-01-21T15:56:06.843Z,5.63
2023-01-21T15:58:56.788Z,5.93
2023-01-21T16:01:35.136Z,4.85
2023-01-21T16:04:24.569Z,5.03
2023-01-21T16:07:04.125Z,4.75
2023-01-21T16:09:54.080Z,5.28
2023-01-21T16:12:34.199Z,5.10
2023-01-21T16:15:08.708Z,5.22
2023-01-21T16:17:58.464Z,5.18
2023-01-21T16:20:25.976Z,5.15
2023-01-21T16:22:54.944Z,4.65
2023-01-21T16:25:23.490Z,5.47
2023-01-21T16:27:53.158Z,5.75
2023-01-21T16:30:30.317Z,5.38
2023-01-21T16:33:08.515Z,5.55
2023-01-21T16:35:43.438Z,7.22
2023-01-21T16:38:19.394Z,5.25
2023-01-21T16:40:51.035Z,5.97
2023-01-21T16:43:27.880Z,5.45
2023-01-21T16:45:58.039Z,5.65
2023-01-21T16:48:26.756Z,6.00
2023-01-21T16:50:55.093Z,6.68
2023-01-21T16:53:24.371Z,7.60
2023-01-21T16:55:53.962Z,6.38
2023-01-21T16:58:30.818Z,7.77
2023-01-21T17:01:20.086Z,5.68
2023-01-21T17:03:48.316Z,6.25
2023-01-21T17:06:18.333Z,6.22
2023-01-21T17:08:53.587Z,7.43
2023-01-21T17:11:21.650Z,6.78
2023-01-21T17:13:49.109Z,6.90
2023-01-21T17:16:28.947Z,6.55
2023-01-21T17:18:57.423Z,6.40
2023-01-21T17:21:55.575Z,6.93
2023-01-21T17:24:34.465Z,7.13
2023-01-21T17:27:07.037Z,8.63
2023-01-21T17:29:35.827Z,6.47
2023-01-21T17:32:08.237Z,6.55
2023-01-21T17:34:36.570Z,8.23
2023-01-21T17:37:10.287Z,6.20
2023-01-21T17:39:57.904Z,7.55
2023-01-21T17:42:29.215Z,7.88
2023-01-21T17:44:58.502Z,8.65
2023-01-21T17:47:34.118Z,9.48
2023-01-21T17:50:23.489Z,8.90
2023-01-21T17:53:01.641Z,7.65
2023-01-21T17:55:32.347Z,9.05
2023-01-21T17:58:04.712Z,9.83
2023-01-21T18:00:36.997Z,8.30
2023-01-21T18:03:04.700Z,8.32
2023-01-21T18:05:33.544Z,9.10
2023-01-21T18:08:02.415Z,8.85
2023-01-21T18:10:30.223Z,9.02
2023-01-21T18:12:58.393Z,7.93
2023-01-21T18:15:26.175Z,6.35
2023-01-21T18:17:59.109Z,6.90
2023-01-21T18:20:28.809Z,7.65
2023-01-21T18:22:57.338Z,6.80
2023-01-21T18:25:25.794Z,8.50
2023-01-21T18:27:56.496Z,7.93
2023-01-21T18:30:25.773Z,7.55
2023-01-21T18:32:54.041Z,7.85
2023-01-21T18:35:29.114Z,8.15
2023-01-21T18:37:57.387Z,6.70
2023-01-21T18:40:24.805Z,8.82
2023-01-21T18:42:55.462Z,8.65
2023-01-21T18:45:26.055Z,8.95
2023-01-21T18:47:53.501Z,8.47
2023-01-21T18:50:23.656Z,8.68
2023-01-21T18:52:51.294Z,8.18
2023-01-21T18:55:19.417Z,7.28
2023-01-21T18:57:49.718Z,7.07
2023-01-21T19:00:25.009Z,7.55
2023-01-21T19:02:53.709Z,6.13
2023-01-21T19:05:26.806Z,7.78
2023-01-21T19:07:54.370Z,8.23
2023-01-21T19:10:21.850Z,6.97
2023-01-21T19:12:50.402Z,9.23
2023-01-21T19:15:19.354Z,9.73
2023-01-21T19:17:47.124Z,10.45
2023-01-21T19:20:21.939Z,11.93
2023-01-21T19:22:49.942Z,11.10
2023-01-21T19:25:18.684Z,10.48
2023-01-21T19:27:48.158Z,10.27
2023-01-21T19:30:23.543Z,10.50
2023-01-21T19:32:52.314Z,10.80
2023-01-21T19:35:22.574Z,12.23
2023-01-21T19:37:50.091Z,9.88
2023-01-21T19:40:21.836Z,12.50
2023-01-21T19:42:49.271Z,11.43
2023-01-21T19:45:18.759Z,9.20
2023-01-21T19:47:47.922Z,9.10
2023-01-21T19:50:17.830Z,8.98
2023-01-21T19:52:46.307Z,11.32
2023-01-21T19:55:15.333Z,9.65
2023-01-21T19:57:43.560Z,8.85
2023-01-21T20:00:19.235Z,8.68
2023-01-21T20:02:47.253Z,8.55
2023-01-21T20:05:15.038Z,7.18
2023-01-21T20:07:43.219Z,6.50
2023-01-21T20:10:19.107Z,7.95
2023-01-21T20:12:47.023Z,7.65
2023-01-21T20:15:16.397Z,7.53
2023-01-21T20:17:46.760Z,7.10
2023-01-21T20:20:18.462Z,7.78
2023-01-21T20:22:46.034Z,7.93
2023-01-21T20:25:21.047Z,7.50
2023-01-21T20:27:53.377Z,7.60
2023-01-21T20:30:22.884Z,8.52
2023-01-21T20:32:50.573Z,10.30
2023-01-21T20:35:19.060Z,10.32
2023-01-21T20:37:49.002Z,10.70
2023-01-21T20:40:20.687Z,10.93
2023-01-21T20:42:48.722Z,11.18
2023-01-21T20:45:17.424Z,9.73
2023-01-21T20:47:50.519Z,9.82
2023-01-21T20:50:26.449Z,10.55
2023-01-21T20:52:54.132Z,10.70
2023-01-21T20:55:24.454Z,10.80
2023-01-21T20:57:52.179Z,10.30
2023-01-21T21:00:23.994Z,10.90
2023-01-21T21:02:51.371Z,9.77
2023-01-21T21:05:19.284Z,9.65
2023-01-21T21:07:47.898Z,9.05
2023-01-21T21:10:31.681Z,9.35
2023-01-21T21:12:59.204Z,8.63
2023-01-21T21:15:28.666Z,7.32
2023-01-21T21:17:57.865Z,8.45
2023-01-21T21:20:30.126Z,8.32
2023-01-21T21:22:58.289Z,8.65
2023-01-21T21:25:27.718Z,9.68
2023-01-21T21:27:55.395Z,8.88
2023-01-21T21:30:30.400Z,9.48
2023-01-21T21:32:59.363Z,10.18
2023-01-21T21:35:28.569Z,9.57
2023-01-21T21:38:04.367Z,8.38
2023-01-21T21:40:32.410Z,7.15
2023-01-21T21:43:18.391Z,7.55
2023-01-21T21:46:04.902Z,8.18
2023-01-21T21:48:39.311Z,9.13
2023-01-21T21:51:09.715Z,8.57
2023-01-21T21:53:38.105Z,7.25
2023-01-21T21:56:07.590Z,10.02
2023-01-21T21:58:35.173Z,7.95
2023-01-21T22:01:15.460Z,8.52
2023-01-21T22:03:43.298Z,8.57
2023-01-21T22:06:11.362Z,8.25
2023-01-21T22:08:40.062Z,9.55
2023-01-21T22:11:09.317Z,10.57
2023-01-21T22:13:37.952Z,10.45
2023-01-21T22:16:05.929Z,9.63
2023-01-21T22:18:37.150Z,8.85
2023-01-21T22:21:09.414Z,7.85
2023-01-21T22:23:37.877Z,9.18
2023-01-21T22:26:06.995Z,9.00
2023-01-21T22:28:34.915Z,9.32
2023-01-21T22:31:04.218Z,8.32
2023-01-21T22:33:32.504Z,8.27
2023-01-21T22:36:07.748Z,8.23
2023-01-21T22:38:35.704Z,7.97
2023-01-21T22:41:03.725Z,7.43
2023-01-21T22:43:31.439Z,7.88
2023-01-21T22:45:59.627Z,9.75
2023-01-21T22:48:27.474Z,7.85
2023-01-21T22:50:56.224Z,8.85
2023-01-21T22:53:23.940Z,8.52
2023-01-21T22:55:58.493Z,8.38
2023-01-21T22:58:26.683Z,7.05
2023-01-21T23:00:54.339Z,8.38
2023-01-21T23:03:22.205Z,9.48
2023-01-21T23:05:49.952Z,8.13
2023-01-21T23:08:17.586Z,8.43
2023-01-21T23:10:45.379Z,7.72
2023-01-21T23:13:13.550Z,8.15
2023-01-21T23:15:44.704Z,8.15
2023-01-21T23:18:13.282Z,8.73
2023-01-21T23:20:42.138Z,9.35
2023-01-21T23:23:10.277Z,7.20
2023-01-21T23:25:41.948Z,7.80
2023-01-21T23:28:09.471Z,7.82
2023-01-21T23:30:36.928Z,8.02
2023-01-21T23:33:04.423Z,6.85
2023-01-21T23:35:34.185Z,9.60
2023-01-21T23:38:02.449Z,7.70
2023-01-21T23:40:30.441Z,8.52
2023-01-21T23:42:57.964Z,8.25
2023-01-21T23:45:25.494Z,9.00
2023-01-21T23:47:54.320Z,8.20
2023-01-21T23:50:22.070Z,7.30
2023-01-21T23:52:49.511Z,8.65
2023-01-21T23:55:17.228Z,8.30
2023-01-21T23:57:44.650Z,7.88
